Latest Weather Observations for Newman Airport

IDW60801

Issued at 8:05 pm WST Thursday 23 October 2014 (issued every 30 minutes, with the page automatically refreshed every 10 minutes)

About weather observations | Map of weather stations | Latest weather observations for WA | Other Formats
Station Details ID: 007176 Name: NEWMAN AERO Lat: -23.42 Lon: 119.80 Height: 524.0 m
Data from the previous 72 hours. | See also: Recent months at Newman Airport
Date/Time
WST
Temp
°C
App
Temp
°C
Dew
Point
Rel
Hum
%
Delta-T
°C
Wind Press
QNH
hPa
Press
MSL
hPa
Rain
since 9 am
mm
Dir
 
Spd
km/h
Gust
km/h
Spd
kts
Gust
kts
23/08:00pm 30.2 27.9 5.5 21 13.3 WSW 7 11 4 6 1015.0 1011.7 0.0
23/07:30pm 31.5 27.9 5.1 19 14.2 SW 13 17 7 9 1014.6 1011.3 0.0
23/07:00pm 32.3 28.7 5.0 18 14.7 SW 13 19 7 10 1014.3 1011.0 0.0
23/06:30pm 33.2 29.2 4.9 17 15.3 SW 15 20 8 11 1013.8 1010.5 0.0
23/06:00pm 34.1 30.4 4.7 16 15.9 SW 13 19 7 10 1013.5 1010.1 0.0
23/05:30pm 35.2 31.2 4.7 15 16.6 SW 15 20 8 11 1013.1 1009.8 0.0
23/05:00pm 35.6 30.7 4.0 14 17.1 SSW 19 26 10 14 1012.9 1009.6 0.0
23/04:30pm 36.4 32.3 4.6 14 17.4 SW 15 20 8 11 1012.8 1009.5 0.0
23/04:00pm 36.6 33.3 4.8 14 17.5 SSW 11 17 6 9 1012.7 1009.4 0.0
23/03:30pm 36.5 33.2 4.7 14 17.5 SW 11 20 6 11 1012.8 1009.5 0.0
23/03:00pm 35.5 32.1 3.9 14 17.0 S 11 19 6 10 1013.0 1009.7 0.0
23/02:30pm 36.3 32.8 3.5 13 17.7 SW 11 17 6 9 1013.2 1009.9 0.0
23/02:00pm 36.0 32.5 5.3 15 17.0 WSW 13 26 7 14 1013.4 1010.0 0.0
23/01:30pm 35.8 31.8 5.1 15 16.9 SW 15 20 8 11 1013.7 1010.4 0.0
23/01:00pm 35.1 31.8 4.6 15 16.6 SSW 11 22 6 12 1014.2 1010.9 0.0
23/12:30pm 35.4 31.6 5.8 16 16.4 W 15 26 8 14 1014.6 1011.3 0.0
23/12:00pm 34.6 30.1 6.8 18 15.6 S 20 30 11 16 1014.9 1011.6 0.0
23/11:30am 33.9 31.1 8.5 21 14.6 SSW 13 20 7 11 1015.4 1012.1 0.0
23/11:00am 32.8 29.9 8.3 22 14.0 SSE 13 20 7 11 1015.7 1012.4 0.0
23/10:30am 32.4 28.6 9.2 24 13.4 S 19 28 10 15 1016.1 1012.8 0.0
23/10:00am 31.1 27.2 9.3 26 12.5 S 20 28 11 15 1016.4 1013.1 0.0
23/09:30am 30.3 26.5 9.2 27 12.1 S 19 24 10 13 1016.6 1013.3 0.0
23/09:00am 29.6 25.1 8.6 27 11.8 SSE 22 30 12 16 1016.8 1013.5 0.0
23/08:30am 28.6 23.9 9.3 30 11.0 S 24 35 13 19 1016.9 1013.6 0.0
23/08:00am 27.3 24.0 8.2 30 10.6 S 15 22 8 12 1016.9 1013.6 0.0
23/07:30am 26.2 23.3 8.2 32 9.9 SW 13 17 7 9 1016.7 1013.4 0.0
23/07:00am 25.4 22.9 8.0 33 9.5 SW 11 15 6 8 1016.3 1013.0 0.0
23/06:30am 24.6 22.4 7.7 34 9.2 WSW 9 13 5 7 1016.1 1012.8 0.0
23/06:00am 23.8 21.9 7.4 35 8.8 SW 7 9 4 5 1015.8 1012.5 0.0
23/05:30am 24.1 21.7 6.8 33 9.2 WSW 9 11 5 6 1015.6 1012.3 0.0
23/05:00am 24.3 21.9 7.0 33 9.2 WSW 9 11 5 6 1015.4 1012.1 0.0
23/04:30am 24.0 21.5 6.7 33 9.2 WSW 9 11 5 6 1015.0 1011.7 0.0
23/04:00am 24.3 22.1 6.1 31 9.6 W 7 7 4 4 1014.9 1011.6 0.0
23/03:30am 24.8 22.6 6.1 30 9.9 WSW 7 9 4 5 1014.7 1011.4 0.0
23/03:00am 25.4 22.7 5.6 28 10.4 WSW 9 11 5 6 1014.5 1011.2 0.0
23/02:30am 26.1 23.0 5.7 27 10.8 SW 11 15 6 8 1014.6 1011.3 0.0
23/02:00am 26.6 23.1 5.5 26 11.1 SSW 13 17 7 9 1014.6 1011.3 0.0
23/01:30am 26.3 23.1 5.3 26 11.0 SSW 11 15 6 8 1014.7 1011.4 0.0
23/01:00am 26.5 24.0 4.9 25 11.3 S 7 9 4 5 1014.9 1011.6 0.0
23/12:30am 27.5 24.3 5.1 24 11.8 SSW 11 15 6 8 1015.0 1011.7 0.0
23/12:00am 28.2 24.5 4.5 22 12.4 SSW 13 20 7 11 1015.4 1012.1 0.0
 
Date/Time
WST
Temp
°C
App
Temp
°C
Dew
Point
Rel
Hum
%
Delta-T
°C
Wind Press
QNH
hPa
Press
MSL
hPa
Rain
since 9 am
mm
Dir
 
Spd
km/h
Gust
km/h
Spd
kts
Gust
kts
22/11:30pm 28.8 23.9 4.3 21 12.8 SW 19 24 10 13 1015.4 1012.1 0.0
22/11:00pm 28.9 24.1 4.4 21 12.8 SW 19 28 10 15 1015.8 1012.5 0.0
22/10:30pm 29.0 24.0 4.5 21 12.9 SW 20 30 11 16 1016.0 1012.7 0.0
22/10:00pm 29.0 23.8 3.8 20 13.1 SW 20 30 11 16 1016.1 1012.8 0.0
22/09:30pm 28.5 24.9 0.3 16 13.7 WSW 9 13 5 7 1016.1 1012.8 0.0
22/09:00pm 28.8 24.7 -0.4 15 14.1 WSW 11 13 6 7 1016.2 1012.9 0.0
22/08:30pm 28.3 25.3 0.9 17 13.5 SW 6 7 3 4 1016.1 1012.8 0.0
22/08:00pm 29.5 26.1 -0.8 14 14.6 S 7 7 4 4 1016.0 1012.7 0.0
22/07:30pm 30.8 26.8 -1.9 12 15.6 SSE 9 13 5 7 1015.9 1012.6 0.0
22/07:00pm 31.4 27.1 -1.4 12 15.8 SW 11 13 6 7 1015.9 1012.6 0.0
22/06:30pm 32.4 27.9 -3.1 10 16.8 SW 11 13 6 7 1015.8 1012.5 0.0
22/06:00pm 33.3 28.7 -3.8 9 17.4 SSW 11 17 6 9 1015.6 1012.3 0.0
22/05:30pm 33.9 28.5 -4.9 8 18.0 SSW 15 20 8 11 1015.4 1012.1 0.0
22/05:00pm 34.3 28.5 -4.6 8 18.2 SSW 17 30 9 16 1015.1 1011.8 0.0
22/04:30pm 34.5 28.9 -6.3 7 18.6 SSW 15 20 8 11 1015.1 1011.8 0.0
22/04:00pm 34.8 29.4 -8.0 6 19.0 SW 13 22 7 12 1015.2 1011.9 0.0
22/03:30pm 35.5 30.2 -7.5 6 19.3 SSW 13 17 7 9 1015.2 1011.9 0.0
22/03:00pm 35.3 29.8 -10.0 5 19.5 SE 13 19 7 10 1015.1 1011.8 0.0
22/02:30pm 35.9 30.8 -9.6 5 19.9 SE 11 17 6 9 1015.5 1012.2 0.0
22/02:00pm 35.9 30.8 -9.6 5 19.8 SSW 11 22 6 12 1015.8 1012.5 0.0
22/01:30pm 36.5 29.5 -12.0 4 20.5 W 20 26 11 14 1016.0 1012.7 0.0
22/01:00pm 35.4 28.6 -12.7 4 19.9 SE 19 24 10 13 1016.4 1013.1 0.0
22/12:30pm 35.1 29.4 -12.9 4 19.7 SE 13 20 7 11 1016.9 1013.6 0.0
22/12:00pm 34.9 28.4 -13.0 4 19.6 SSE 17 26 9 14 1017.4 1014.1 0.0
22/11:30am 34.4 29.2 -10.6 5 19.1 S 11 22 6 12 1017.7 1014.4 0.0
22/11:00am 34.1 27.8 -10.8 5 18.9 S 17 24 9 13 1018.1 1014.8 0.0
22/10:30am 34.3 28.0 -10.7 5 19.0 S 17 37 9 20 1018.5 1015.2 0.0
22/10:00am 32.7 27.0 -7.6 7 17.7 SSE 15 22 8 12 1019.1 1015.9 0.0
22/09:30am 32.6 26.1 -7.6 7 17.6 SSW 19 39 10 21 1019.3 1016.1 0.0
22/09:00am 31.0 25.3 -4.1 10 16.1 SSW 17 26 9 14 1019.5 1016.2 0.0
22/08:30am 30.0 24.6 -4.9 10 15.7 S 15 20 8 11 1019.6 1016.3 0.0
22/08:00am 27.9 23.3 -4.1 12 14.3 S 11 15 6 8 1019.5 1016.2 0.0
22/07:30am 25.9 22.4 -1.0 17 12.6 S 7 15 4 8 1019.3 1016.1 0.0
22/07:00am 22.5 18.9 0.4 23 10.3 WSW 9 13 5 7 1018.6 1015.3 0.0
22/06:30am 19.6 15.9 0.1 27 8.9 SSW 9 13 5 7 1018.5 1015.2 0.0
22/06:00am 17.6 14.5 0.3 31 7.7 W 6 7 3 4 1018.6 1015.3 0.0
22/05:30am 16.9 13.7 0.5 33 7.3 NW 7 9 4 5 1018.2 1014.9 0.0
22/05:00am 17.5 14.2 0.2 31 7.7 WSW 7 9 4 5 1017.7 1014.4 0.0
22/04:30am 16.8 13.3 1.3 35 7.0 SW 9 11 5 6 1017.4 1014.1 0.0
22/04:00am 17.5 15.8 1.9 35 7.2 CALM 0 0 0 0 1017.2 1014.0 0.0
22/03:30am 18.2 16.4 1.3 32 7.8 CALM 0 0 0 0 1016.9 1013.6 0.0
22/03:00am 19.3 15.6 -0.1 27 8.7 SSW 9 11 5 6 1016.9 1013.6 0.0
22/02:30am 19.9 15.8 -0.1 26 9.1 S 11 13 6 7 1016.8 1013.5 0.0
22/02:00am 21.2 18.4 -0.1 24 9.7 S 4 7 2 4 1016.8 1013.5 0.0
22/01:30am 21.8 18.6 -0.8 22 10.3 ESE 6 11 3 6 1016.8 1013.5 0.0
22/01:00am 22.8 18.9 -1.3 20 10.9 SSW 9 13 5 7 1017.0 1013.8 0.0
22/12:30am 23.7 19.4 -1.3 19 11.4 W 11 17 6 9 1016.9 1013.6 0.0
22/12:00am 20.9 18.0 1.2 27 9.2 WSW 6 9 3 5 1016.5 1013.2 0.0
 
Date/Time
WST
Temp
°C
App
Temp
°C
Dew
Point
Rel
Hum
%
Delta-T
°C
Wind Press
QNH
hPa
Press
MSL
hPa
Rain
since 9 am
mm
Dir
 
Spd
km/h
Gust
km/h
Spd
kts
Gust
kts
21/11:30pm 22.1 20.3 1.2 25 9.9 CALM 0 0 0 0 1016.8 1013.5 0.0
21/11:00pm 22.8 20.5 0.6 23 10.4 WNW 2 7 1 4 1017.0 1013.8 0.0
21/10:30pm 23.5 20.2 -0.1 21 11.0 N 7 7 4 4 1017.2 1014.0 0.0
21/10:00pm 25.7 22.2 -1.2 17 12.5 NNE 7 11 4 6 1017.5 1014.2 0.0
21/09:30pm 25.6 23.1 -1.2 17 12.4 E 2 6 1 3 1017.7 1014.4 0.0
21/09:00pm 28.1 24.4 -2.9 13 14.2 E 7 9 4 5 1017.8 1014.5 0.0
21/08:30pm 28.5 24.7 -3.6 12 14.6 ENE 7 9 4 5 1017.7 1014.4 0.0
21/08:00pm 30.0 25.6 -6.3 9 15.9 E 9 13 5 7 1017.4 1014.1 0.0
21/07:30pm 31.5 26.9 -8.4 7 17.1 E 9 11 5 6 1017.1 1013.9 0.0
21/07:00pm 32.2 27.3 -12.2 5 18.0 E 9 11 5 6 1016.8 1013.5 0.0
21/06:30pm 33.1 28.1 -14.3 4 18.7 ENE 9 11 5 6 1016.4 1013.1 0.0
21/06:00pm 34.0 29.4 -13.7 4 19.2 NNE 7 15 4 8 1016.2 1012.9 0.0
21/05:30pm 34.8 31.0 -16.6 3 19.9 SW 2 7 1 4 1016.0 1012.7 0.0
21/05:00pm 35.3 30.3 -12.8 4 19.8 N 9 17 5 9 1015.9 1012.6 0.0
21/04:30pm 35.1 28.6 -12.9 4 19.7 ENE 17 24 9 13 1015.7 1012.4 0.0
21/04:00pm 35.6 30.7 -12.6 4 20.0 NNW 9 19 5 10 1015.7 1012.4 0.0
21/03:30pm 35.6 30.8 -16.1 3 20.3 NNE 7 20 4 11 1015.9 1012.6 0.0
21/03:00pm 35.9 31.4 -12.4 4 20.2 NW 7 15 4 8 1016.1 1012.8 0.0
21/02:30pm 35.3 30.0 -7.7 6 19.2 NNW 13 28 7 15 1016.3 1013.0 0.0
21/02:00pm 35.1 29.8 -7.8 6 19.1 NNW 13 20 7 11 1016.6 1013.3 0.0
21/01:30pm 34.8 30.2 -8.0 6 19.0 ENE 9 17 5 9 1017.0 1013.8 0.0
21/01:00pm 35.0 29.3 -7.9 6 19.1 NNW 15 30 8 16 1017.6 1014.3 0.0
21/12:30pm 34.1 29.3 -6.5 7 18.4 ENE 11 22 6 12 1018.0 1014.7 0.0
21/12:00pm 34.2 27.6 -6.5 7 18.4 NNE 20 30 11 16 1018.5 1015.2 0.0
21/11:30am 33.6 28.9 -5.2 8 17.9 NNW 11 26 6 14 1018.7 1015.4 0.0
21/11:00am 32.8 26.7 -4.2 9 17.2 N 19 30 10 16 1019.3 1016.1 0.0
21/10:30am 31.8 27.3 -3.5 10 16.5 NNW 11 20 6 11 1019.8 1016.5 0.0
21/10:00am 31.2 26.4 -2.7 11 15.9 NNE 13 24 7 13 1020.4 1017.1 0.0
21/09:30am 30.9 27.0 1.3 15 14.9 NE 11 19 6 10 1020.5 1017.3 0.0
21/09:00am 30.0 25.9 2.3 17 14.1 E 13 22 7 12 1020.6 1017.4 0.0
21/08:30am 28.3 24.2 2.5 19 13.0 E 13 20 7 11 1020.7 1017.5 0.0
21/08:00am 27.1 23.2 3.6 22 12.0 E 13 20 7 11 1020.7 1017.5 0.0
21/07:30am 23.9 20.6 4.8 29 9.8 ENE 11 15 6 8 1020.5 1017.3 0.0
21/07:00am 22.1 20.6 5.1 33 8.6 SSW 2 9 1 5 1020.1 1016.8 0.0
21/06:30am 18.6 17.7 6.1 44 6.3 CALM 0 6 0 3 1019.9 1016.6 0.0
21/06:00am 15.6 13.4 5.5 51 4.9 SW 6 7 3 4 1019.3 1016.1 0.0
21/05:30am 14.6 11.7 4.6 51 4.8 WSW 9 9 5 5 1018.9 1015.7 0.0
21/05:00am 14.8 13.5 4.2 49 5.0 CALM 0 0 0 0 1018.6 1015.3 0.0
21/04:30am 15.2 14.0 4.6 49 5.1 CALM 0 0 0 0 1018.6 1015.3 0.0
21/04:00am 15.6 12.7 4.6 48 5.3 W 9 11 5 6 1018.4 1015.1 0.0
21/03:30am 15.7 13.2 4.7 48 5.3 W 7 9 4 5 1018.0 1014.7 0.0
21/03:00am 16.3 13.7 4.4 45 5.7 WNW 7 9 4 5 1017.8 1014.5 0.0
21/02:30am 16.5 14.0 3.9 43 6.0 WNW 6 7 3 4 1017.7 1014.4 0.0
21/02:00am 17.0 14.5 4.0 42 6.2 WNW 6 7 3 4 1017.7 1014.4 0.0
21/01:30am 18.0 16.7 3.9 39 6.8 CALM 0 6 0 3 1017.5 1014.2 0.0
21/01:00am 18.4 16.9 3.1 36 7.3 CALM 0 0 0 0 1017.6 1014.3 0.0
21/12:30am 18.9 16.1 2.3 33 7.8 SW 6 7 3 4 1017.5 1014.2 0.0
21/12:00am 20.2 18.2 2.1 30 8.6 SW 2 6 1 3 1017.6 1014.3 0.0
 
Date/Time
WST
Temp
°C
App
Temp
°C
Dew
Point
Rel
Hum
%
Delta-T
°C
Wind Press
QNH
hPa
Press
MSL
hPa
Rain
since 9 am
mm
Dir
 
Spd
km/h
Gust
km/h
Spd
kts
Gust
kts
20/11:30pm 20.9 17.4 1.2 27 9.2 SW 9 11 5 6 1017.6 1014.3 0.0
20/11:00pm 21.1 17.5 0.9 26 9.4 WSW 9 11 5 6 1017.8 1014.5 0.0
20/10:30pm 22.0 18.0 0.5 24 10.0 WSW 11 11 6 6 1017.9 1014.6 0.0
20/10:00pm 22.5 18.8 -0.3 22 10.5 WSW 9 11 5 6 1017.8 1014.5 0.0
20/09:30pm 23.2 19.9 0.3 22 10.7 SW 7 9 4 5 1017.8 1014.5 0.0
20/09:00pm 24.6 20.5 -2.9 16 12.3 SSW 9 11 5 6 1017.7 1014.4 0.0
20/08:30pm 26.0 21.8 -3.5 14 13.2 S 9 11 5 6 1017.5 1014.2 0.0

Other Formats:

Comma delimited format used in spreadsheet applications
http://www.bom.gov.au/fwo/IDW60801/IDW60801.94317.axf

JavaScript Object Notation format (JSON) in row-major order
http://www.bom.gov.au/fwo/IDW60801/IDW60801.94317.json